sensor_id;sensor_type;location;lat;lon;timestamp;temperature;humidity
15413;DHT22;7805;49.554;7.632;2023-04-03T00:01:04;6.20;99.90
15413;DHT22;7805;49.554;7.632;2023-04-03T00:03:30;6.20;99.90
15413;DHT22;7805;49.554;7.632;2023-04-03T00:05:55;6.20;99.90
15413;DHT22;7805;49.554;7.632;2023-04-03T00:08:21;6.20;99.90
15413;DHT22;7805;49.554;7.632;2023-04-03T00:10:47;6.30;99.90
15413;DHT22;7805;49.554;7.632;2023-04-03T00:13:13;6.20;99.90
15413;DHT22;7805;49.554;7.632;2023-04-03T00:15:40;6.20;99.90
15413;DHT22;7805;49.554;7.632;2023-04-03T00:18:06;6.20;99.90
15413;DHT22;7805;49.554;7.632;2023-04-03T00:20:32;6.20;99.90
15413;DHT22;7805;49.554;7.632;2023-04-03T00:22:59;6.20;99.90
15413;DHT22;7805;49.554;7.632;2023-04-03T00:25:25;6.20;99.90
15413;DHT22;7805;49.554;7.632;2023-04-03T00:27:51;6.10;99.90
15413;DHT22;7805;49.554;7.632;2023-04-03T00:30:18;6.10;99.90
15413;DHT22;7805;49.554;7.632;2023-04-03T00:32:44;6.10;99.90
15413;DHT22;7805;49.554;7.632;2023-04-03T00:35:10;6.10;99.90
15413;DHT22;7805;49.554;7.632;2023-04-03T00:37:36;6.00;99.90
15413;DHT22;7805;49.554;7.632;2023-04-03T00:40:03;5.90;99.90
15413;DHT22;7805;49.554;7.632;2023-04-03T00:42:29;5.90;99.90
15413;DHT22;7805;49.554;7.632;2023-04-03T00:47:25;5.80;99.90
15413;DHT22;7805;49.554;7.632;2023-04-03T00:49:52;5.80;99.90
15413;DHT22;7805;49.554;7.632;2023-04-03T00:52:22;5.70;99.90
15413;DHT22;7805;49.554;7.632;2023-04-03T00:54:50;5.60;99.90
15413;DHT22;7805;49.554;7.632;2023-04-03T00:57:17;5.50;99.90
15413;DHT22;7805;49.554;7.632;2023-04-03T00:59:47;5.40;99.90
15413;DHT22;7805;49.554;7.632;2023-04-03T01:02:14;5.30;99.90
15413;DHT22;7805;49.554;7.632;2023-04-03T01:04:41;5.30;99.90
15413;DHT22;7805;49.554;7.632;2023-04-03T01:09:36;5.20;99.90
15413;DHT22;7805;49.554;7.632;2023-04-03T01:12:26;5.20;99.90
15413;DHT22;7805;49.554;7.632;2023-04-03T01:14:54;5.00;99.90
15413;DHT22;7805;49.554;7.632;2023-04-03T01:17:53;5.00;99.90
15413;DHT22;7805;49.554;7.632;2023-04-03T01:23:16;5.00;99.90
15413;DHT22;7805;49.554;7.632;2023-04-03T01:25:46;4.90;99.90
15413;DHT22;7805;49.554;7.632;2023-04-03T01:28:15;4.80;99.90
15413;DHT22;7805;49.554;7.632;2023-04-03T01:33:32;4.70;99.90
15413;DHT22;7805;49.554;7.632;2023-04-03T01:35:58;4.60;99.90
15413;DHT22;7805;49.554;7.632;2023-04-03T01:38:24;4.50;99.90
15413;DHT22;7805;49.554;7.632;2023-04-03T01:40:49;4.50;99.90
15413;DHT22;7805;49.554;7.632;2023-04-03T01:43:15;4.50;99.90
15413;DHT22;7805;49.554;7.632;2023-04-03T01:45:40;4.40;99.90
15413;DHT22;7805;49.554;7.632;2023-04-03T01:48:06;4.40;99.90
15413;DHT22;7805;49.554;7.632;2023-04-03T01:50:32;4.40;99.90
15413;DHT22;7805;49.554;7.632;2023-04-03T01:52:57;4.40;99.90
15413;DHT22;7805;49.554;7.632;2023-04-03T01:55:23;4.50;99.90
15413;DHT22;7805;49.554;7.632;2023-04-03T01:57:48;4.50;99.90
15413;DHT22;7805;49.554;7.632;2023-04-03T02:00:14;4.50;99.90
15413;DHT22;7805;49.554;7.632;2023-04-03T02:02:40;4.50;99.90
15413;DHT22;7805;49.554;7.632;2023-04-03T02:05:06;4.50;99.90
15413;DHT22;7805;49.554;7.632;2023-04-03T02:07:31;4.50;99.90
15413;DHT22;7805;49.554;7.632;2023-04-03T02:09:57;4.50;99.90
15413;DHT22;7805;49.554;7.632;2023-04-03T02:12:23;4.40;99.90
15413;DHT22;7805;49.554;7.632;2023-04-03T02:14:48;4.30;99.90
15413;DHT22;7805;49.554;7.632;2023-04-03T02:17:14;4.30;99.90
15413;DHT22;7805;49.554;7.632;2023-04-03T02:19:40;4.30;99.90
15413;DHT22;7805;49.554;7.632;2023-04-03T02:22:05;4.30;99.90
15413;DHT22;7805;49.554;7.632;2023-04-03T02:24:31;4.30;99.90
15413;DHT22;7805;49.554;7.632;2023-04-03T02:26:57;4.30;99.90
15413;DHT22;7805;49.554;7.632;2023-04-03T02:29:23;4.20;99.90
15413;DHT22;7805;49.554;7.632;2023-04-03T02:31:49;4.20;99.90
15413;DHT22;7805;49.554;7.632;2023-04-03T02:34:15;4.20;99.90
15413;DHT22;7805;49.554;7.632;2023-04-03T02:36:41;4.20;99.90
15413;DHT22;7805;49.554;7.632;2023-04-03T02:39:07;4.10;99.90
15413;DHT22;7805;49.554;7.632;2023-04-03T02:41:32;4.10;99.90
15413;DHT22;7805;49.554;7.632;2023-04-03T02:44:02;4.10;99.90
15413;DHT22;7805;49.554;7.632;2023-04-03T02:46:30;4.10;99.90
15413;DHT22;7805;49.554;7.632;2023-04-03T02:48:55;4.00;99.90
15413;DHT22;7805;49.554;7.632;2023-04-03T02:51:21;4.10;99.90
15413;DHT22;7805;49.554;7.632;2023-04-03T02:53:48;4.10;99.90
15413;DHT22;7805;49.554;7.632;2023-04-03T02:56:14;4.00;99.90
15413;DHT22;7805;49.554;7.632;2023-04-03T02:58:39;4.30;99.90
15413;DHT22;7805;49.554;7.632;2023-04-03T03:01:05;4.00;99.90
15413;DHT22;7805;49.554;7.632;2023-04-03T03:03:31;5.00;99.90
15413;DHT22;7805;49.554;7.632;2023-04-03T03:06:11;4.00;99.90
15413;DHT22;7805;49.554;7.632;2023-04-03T03:08:39;4.00;99.90
15413;DHT22;7805;49.554;7.632;2023-04-03T03:11:07;5.10;99.90
15413;DHT22;7805;49.554;7.632;2023-04-03T03:13:33;3.90;99.90
15413;DHT22;7805;49.554;7.632;2023-04-03T03:15:59;3.90;99.90
15413;DHT22;7805;49.554;7.632;2023-04-03T03:18:24;3.80;99.90
15413;DHT22;7805;49.554;7.632;2023-04-03T03:20:58;3.80;99.90
15413;DHT22;7805;49.554;7.632;2023-04-03T03:23:25;3.80;99.90
15413;DHT22;7805;49.554;7.632;2023-04-03T03:26:05;2.90;99.90
15413;DHT22;7805;49.554;7.632;2023-04-03T03:28:32;4.00;99.90
15413;DHT22;7805;49.554;7.632;2023-04-03T03:30:58;3.70;99.90
15413;DHT22;7805;49.554;7.632;2023-04-03T03:33:25;4.50;99.90
15413;DHT22;7805;49.554;7.632;2023-04-03T03:35:52;3.80;99.90
15413;DHT22;7805;49.554;7.632;2023-04-03T03:38:19;3.40;99.90
15413;DHT22;7805;49.554;7.632;2023-04-03T03:40:50;3.30;99.90
15413;DHT22;7805;49.554;7.632;2023-04-03T03:43:16;3.30;99.90
15413;DHT22;7805;49.554;7.632;2023-04-03T03:45:42;3.40;99.90
15413;DHT22;7805;49.554;7.632;2023-04-03T03:48:08;3.30;99.90
15413;DHT22;7805;49.554;7.632;2023-04-03T03:50:34;3.80;99.90
15413;DHT22;7805;49.554;7.632;2023-04-03T03:52:59;3.20;99.90
15413;DHT22;7805;49.554;7.632;2023-04-03T03:55:25;4.40;99.90
15413;DHT22;7805;49.554;7.632;2023-04-03T03:57:51;3.20;99.90
15413;DHT22;7805;49.554;7.632;2023-04-03T04:00:17;3.20;99.90
15413;DHT22;7805;49.554;7.632;2023-04-03T04:02:43;3.10;99.90
15413;DHT22;7805;49.554;7.632;2023-04-03T04:05:09;3.20;99.90
15413;DHT22;7805;49.554;7.632;2023-04-03T04:07:35;3.10;99.90
15413;DHT22;7805;49.554;7.632;2023-04-03T04:10:01;3.10;99.90
15413;DHT22;7805;49.554;7.632;2023-04-03T04:12:27;3.00;99.90
15413;DHT22;7805;49.554;7.632;2023-04-03T04:14:52;3.50;99.90
15413;DHT22;7805;49.554;7.632;2023-04-03T04:17:18;3.10;99.90
15413;DHT22;7805;49.554;7.632;2023-04-03T04:19:43;3.00;99.90
15413;DHT22;7805;49.554;7.632;2023-04-03T04:22:10;3.00;99.90
15413;DHT22;7805;49.554;7.632;2023-04-03T04:24:35;3.50;99.90
15413;DHT22;7805;49.554;7.632;2023-04-03T04:27:01;3.00;99.90
15413;DHT22;7805;49.554;7.632;2023-04-03T04:29:27;3.40;99.90
15413;DHT22;7805;49.554;7.632;2023-04-03T04:31:53;3.00;99.90
15413;DHT22;7805;49.554;7.632;2023-04-03T04:34:18;3.00;99.90
15413;DHT22;7805;49.554;7.632;2023-04-03T04:36:44;3.20;99.90
15413;DHT22;7805;49.554;7.632;2023-04-03T04:39:11;3.00;99.90
15413;DHT22;7805;49.554;7.632;2023-04-03T04:41:37;2.90;99.90
15413;DHT22;7805;49.554;7.632;2023-04-03T04:44:02;3.30;99.90
15413;DHT22;7805;49.554;7.632;2023-04-03T04:46:28;2.90;99.90
15413;DHT22;7805;49.554;7.632;2023-04-03T04:48:54;2.90;99.90
15413;DHT22;7805;49.554;7.632;2023-04-03T04:51:22;2.90;99.90
15413;DHT22;7805;49.554;7.632;2023-04-03T04:53:49;2.90;99.90
15413;DHT22;7805;49.554;7.632;2023-04-03T04:56:15;2.90;99.90
15413;DHT22;7805;49.554;7.632;2023-04-03T04:58:41;3.10;99.90
15413;DHT22;7805;49.554;7.632;2023-04-03T05:01:10;2.90;99.90
15413;DHT22;7805;49.554;7.632;2023-04-03T05:03:36;2.90;99.90
15413;DHT22;7805;49.554;7.632;2023-04-03T05:06:03;2.90;99.90
15413;DHT22;7805;49.554;7.632;2023-04-03T05:08:30;1.20;99.90
15413;DHT22;7805;49.554;7.632;2023-04-03T05:10:56;2.90;99.90
15413;DHT22;7805;49.554;7.632;2023-04-03T05:13:22;3.30;99.90
15413;DHT22;7805;49.554;7.632;2023-04-03T05:15:48;2.80;99.90
15413;DHT22;7805;49.554;7.632;2023-04-03T05:18:13;2.80;99.90
15413;DHT22;7805;49.554;7.632;2023-04-03T05:20:40;2.80;99.90
15413;DHT22;7805;49.554;7.632;2023-04-03T05:23:05;2.80;99.90
15413;DHT22;7805;49.554;7.632;2023-04-03T05:25:31;2.80;99.90
15413;DHT22;7805;49.554;7.632;2023-04-03T05:27:57;2.80;99.90
15413;DHT22;7805;49.554;7.632;2023-04-03T05:30:23;2.80;99.90
15413;DHT22;7805;49.554;7.632;2023-04-03T05:32:50;3.00;99.90
15413;DHT22;7805;49.554;7.632;2023-04-03T05:35:16;2.80;99.90
15413;DHT22;7805;49.554;7.632;2023-04-03T05:37:41;2.90;99.90
15413;DHT22;7805;49.554;7.632;2023-04-03T05:40:09;2.90;99.90
15413;DHT22;7805;49.554;7.632;2023-04-03T05:42:35;2.90;99.90
15413;DHT22;7805;49.554;7.632;2023-04-03T05:45:00;3.00;99.90
15413;DHT22;7805;49.554;7.632;2023-04-03T05:47:26;3.00;99.90
15413;DHT22;7805;49.554;7.632;2023-04-03T05:49:52;3.30;99.90
15413;DHT22;7805;49.554;7.632;2023-04-03T05:52:29;3.00;99.90
15413;DHT22;7805;49.554;7.632;2023-04-03T05:54:55;3.00;99.90
15413;DHT22;7805;49.554;7.632;2023-04-03T05:57:21;3.40;99.90
15413;DHT22;7805;49.554;7.632;2023-04-03T05:59:48;3.30;99.90
15413;DHT22;7805;49.554;7.632;2023-04-03T06:02:21;3.00;99.90
15413;DHT22;7805;49.554;7.632;2023-04-03T06:04:49;0.90;99.90
15413;DHT22;7805;49.554;7.632;2023-04-03T06:07:22;3.00;99.90
15413;DHT22;7805;49.554;7.632;2023-04-03T06:09:49;3.00;99.90
15413;DHT22;7805;49.554;7.632;2023-04-03T06:12:16;3.00;99.90
15413;DHT22;7805;49.554;7.632;2023-04-03T06:14:42;3.70;99.90
15413;DHT22;7805;49.554;7.632;2023-04-03T06:17:08;2.90;99.90
15413;DHT22;7805;49.554;7.632;2023-04-03T06:19:35;3.00;99.90
15413;DHT22;7805;49.554;7.632;2023-04-03T06:22:01;3.50;99.90
15413;DHT22;7805;49.554;7.632;2023-04-03T06:24:28;3.70;99.90
15413;DHT22;7805;49.554;7.632;2023-04-03T06:26:54;4.10;99.90
15413;DHT22;7805;49.554;7.632;2023-04-03T06:29:20;4.90;99.90
15413;DHT22;7805;49.554;7.632;2023-04-03T06:31:48;5.00;99.90
15413;DHT22;7805;49.554;7.632;2023-04-03T06:34:14;5.20;99.90
15413;DHT22;7805;49.554;7.632;2023-04-03T06:36:41;6.10;99.90
15413;DHT22;7805;49.554;7.632;2023-04-03T06:39:07;5.90;99.90
15413;DHT22;7805;49.554;7.632;2023-04-03T06:41:34;6.20;99.90
15413;DHT22;7805;49.554;7.632;2023-04-03T06:44:01;6.50;99.90
15413;DHT22;7805;49.554;7.632;2023-04-03T06:46:29;6.80;99.90
15413;DHT22;7805;49.554;7.632;2023-04-03T06:48:55;7.00;99.90
15413;DHT22;7805;49.554;7.632;2023-04-03T06:51:24;7.20;99.90
15413;DHT22;7805;49.554;7.632;2023-04-03T06:53:52;7.30;99.90
15413;DHT22;7805;49.554;7.632;2023-04-03T06:56:18;7.80;99.90
15413;DHT22;7805;49.554;7.632;2023-04-03T06:58:47;7.70;99.90
15413;DHT22;7805;49.554;7.632;2023-04-03T07:01:20;7.80;99.90
15413;DHT22;7805;49.554;7.632;2023-04-03T07:03:47;7.80;99.90
15413;DHT22;7805;49.554;7.632;2023-04-03T07:06:15;7.90;99.90
15413;DHT22;7805;49.554;7.632;2023-04-03T07:08:41;8.00;99.90
15413;DHT22;7805;49.554;7.632;2023-04-03T07:11:10;8.10;99.90
15413;DHT22;7805;49.554;7.632;2023-04-03T07:13:36;9.10;99.90
15413;DHT22;7805;49.554;7.632;2023-04-03T07:16:03;8.60;99.90
15413;DHT22;7805;49.554;7.632;2023-04-03T07:18:30;8.60;99.90
15413;DHT22;7805;49.554;7.632;2023-04-03T07:20:56;8.50;99.90
15413;DHT22;7805;49.554;7.632;2023-04-03T07:23:23;8.70;99.90
15413;DHT22;7805;49.554;7.632;2023-04-03T07:25:50;8.50;99.90
15413;DHT22;7805;49.554;7.632;2023-04-03T07:28:19;8.70;99.90
15413;DHT22;7805;49.554;7.632;2023-04-03T07:30:54;8.70;99.90
15413;DHT22;7805;49.554;7.632;2023-04-03T07:33:25;8.90;99.90
15413;DHT22;7805;49.554;7.632;2023-04-03T07:35:51;9.10;99.90
15413;DHT22;7805;49.554;7.632;2023-04-03T07:38:17;9.10;99.90
15413;DHT22;7805;49.554;7.632;2023-04-03T07:40:51;9.00;99.90
15413;DHT22;7805;49.554;7.632;2023-04-03T07:43:19;9.00;99.90
15413;DHT22;7805;49.554;7.632;2023-04-03T07:45:46;9.10;99.90
15413;DHT22;7805;49.554;7.632;2023-04-03T07:48:15;9.30;99.90
15413;DHT22;7805;49.554;7.632;2023-04-03T07:50:43;9.60;99.90
15413;DHT22;7805;49.554;7.632;2023-04-03T07:53:12;9.50;99.90
15413;DHT22;7805;49.554;7.632;2023-04-03T07:55:38;10.20;99.90
15413;DHT22;7805;49.554;7.632;2023-04-03T07:58:10;9.60;99.60
15413;DHT22;7805;49.554;7.632;2023-04-03T08:00:37;9.40;99.60
15413;DHT22;7805;49.554;7.632;2023-04-03T08:03:03;11.40;99.90
15413;DHT22;7805;49.554;7.632;2023-04-03T08:05:30;10.00;99.90
15413;DHT22;7805;49.554;7.632;2023-04-03T08:07:56;10.40;99.90
15413;DHT22;7805;49.554;7.632;2023-04-03T08:10:22;9.90;99.90
15413;DHT22;7805;49.554;7.632;2023-04-03T08:12:47;10.40;99.90
15413;DHT22;7805;49.554;7.632;2023-04-03T08:15:13;10.60;97.70
15413;DHT22;7805;49.554;7.632;2023-04-03T08:17:39;10.30;97.70
15413;DHT22;7805;49.554;7.632;2023-04-03T08:20:06;10.10;97.60
15413;DHT22;7805;49.554;7.632;2023-04-03T08:22:32;10.10;98.20
15413;DHT22;7805;49.554;7.632;2023-04-03T08:24:58;10.20;98.40
15413;DHT22;7805;49.554;7.632;2023-04-03T08:27:24;10.80;98.50
15413;DHT22;7805;49.554;7.632;2023-04-03T08:29:50;10.50;98.40
15413;DHT22;7805;49.554;7.632;2023-04-03T08:32:16;10.70;98.50
15413;DHT22;7805;49.554;7.632;2023-04-03T08:34:42;10.60;97.30
15413;DHT22;7805;49.554;7.632;2023-04-03T08:37:07;10.70;97.80
15413;DHT22;7805;49.554;7.632;2023-04-03T08:39:33;10.80;96.70
15413;DHT22;7805;49.554;7.632;2023-04-03T08:42:00;11.00;96.70
15413;DHT22;7805;49.554;7.632;2023-04-03T08:44:43;11.20;95.60
15413;DHT22;7805;49.554;7.632;2023-04-03T08:47:24;11.00;95.00
15413;DHT22;7805;49.554;7.632;2023-04-03T08:49:59;11.20;95.00
15413;DHT22;7805;49.554;7.632;2023-04-03T08:55:00;11.50;92.40
15413;DHT22;7805;49.554;7.632;2023-04-03T08:57:46;11.30;92.70
15413;DHT22;7805;49.554;7.632;2023-04-03T09:00:18;11.40;91.70
15413;DHT22;7805;49.554;7.632;2023-04-03T09:02:50;11.60;92.10
15413;DHT22;7805;49.554;7.632;2023-04-03T09:05:26;11.70;92.00
15413;DHT22;7805;49.554;7.632;2023-04-03T09:08:28;11.90;91.20
15413;DHT22;7805;49.554;7.632;2023-04-03T09:11:06;11.40;90.20
15413;DHT22;7805;49.554;7.632;2023-04-03T09:13:57;10.60;91.60
15413;DHT22;7805;49.554;7.632;2023-04-03T09:16:48;10.40;93.10
15413;DHT22;7805;49.554;7.632;2023-04-03T09:19:36;10.40;92.10
15413;DHT22;7805;49.554;7.632;2023-04-03T09:22:14;10.80;91.80
15413;DHT22;7805;49.554;7.632;2023-04-03T09:24:45;10.80;90.30
15413;DHT22;7805;49.554;7.632;2023-04-03T09:27:12;10.80;90.30
15413;DHT22;7805;49.554;7.632;2023-04-03T09:29:43;10.30;90.20
15413;DHT22;7805;49.554;7.632;2023-04-03T09:34:49;9.90;89.90
15413;DHT22;7805;49.554;7.632;2023-04-03T09:40:03;10.30;91.30
15413;DHT22;7805;49.554;7.632;2023-04-03T09:42:30;10.20;91.10
15413;DHT22;7805;49.554;7.632;2023-04-03T09:45:04;10.20;90.60
15413;DHT22;7805;49.554;7.632;2023-04-03T09:47:32;10.50;90.40
15413;DHT22;7805;49.554;7.632;2023-04-03T09:52:44;11.00;85.20
15413;DHT22;7805;49.554;7.632;2023-04-03T09:57:41;10.50;88.10
15413;DHT22;7805;49.554;7.632;2023-04-03T10:00:21;10.30;88.00
15413;DHT22;7805;49.554;7.632;2023-04-03T10:02:50;10.20;88.90
15413;DHT22;7805;49.554;7.632;2023-04-03T10:05:32;10.10;88.70
15413;DHT22;7805;49.554;7.632;2023-04-03T10:08:14;9.90;88.30
15413;DHT22;7805;49.554;7.632;2023-04-03T10:10:46;9.80;88.50
15413;DHT22;7805;49.554;7.632;2023-04-03T10:13:15;9.80;89.20
15413;DHT22;7805;49.554;7.632;2023-04-03T10:15:46;9.70;88.40
15413;DHT22;7805;49.554;7.632;2023-04-03T10:18:32;9.80;90.00
15413;DHT22;7805;49.554;7.632;2023-04-03T10:21:07;10.00;86.40
15413;DHT22;7805;49.554;7.632;2023-04-03T10:23:50;10.30;85.50
15413;DHT22;7805;49.554;7.632;2023-04-03T10:26:39;10.80;84.70
15413;DHT22;7805;49.554;7.632;2023-04-03T10:32:02;11.60;80.00
15413;DHT22;7805;49.554;7.632;2023-04-03T10:34:39;11.70;79.70
15413;DHT22;7805;49.554;7.632;2023-04-03T10:42:22;11.80;82.50
15413;DHT22;7805;49.554;7.632;2023-04-03T10:45:28;11.90;81.10
15413;DHT22;7805;49.554;7.632;2023-04-03T10:48:15;11.80;80.50
15413;DHT22;7805;49.554;7.632;2023-04-03T10:56:44;11.10;79.20
15413;DHT22;7805;49.554;7.632;2023-04-03T10:59:32;10.70;80.20
15413;DHT22;7805;49.554;7.632;2023-04-03T11:02:14;10.50;80.40
15413;DHT22;7805;49.554;7.632;2023-04-03T11:04:45;10.50;81.70
15413;DHT22;7805;49.554;7.632;2023-04-03T11:07:28;10.60;81.80
15413;DHT22;7805;49.554;7.632;2023-04-03T11:10:05;10.20;80.50
15413;DHT22;7805;49.554;7.632;2023-04-03T11:12:48;10.20;83.10
15413;DHT22;7805;49.554;7.632;2023-04-03T11:15:19;10.60;85.30
15413;DHT22;7805;49.554;7.632;2023-04-03T11:18:04;10.60;81.40
15413;DHT22;7805;49.554;7.632;2023-04-03T11:20:32;10.70;83.20
15413;DHT22;7805;49.554;7.632;2023-04-03T11:23:12;10.80;81.90
15413;DHT22;7805;49.554;7.632;2023-04-03T11:25:43;10.80;80.40
15413;DHT22;7805;49.554;7.632;2023-04-03T11:28:14;10.40;79.00
15413;DHT22;7805;49.554;7.632;2023-04-03T11:36:45;10.70;82.80
15413;DHT22;7805;49.554;7.632;2023-04-03T11:39:22;11.00;81.10
15413;DHT22;7805;49.554;7.632;2023-04-03T11:41:48;11.40;77.00
15413;DHT22;7805;49.554;7.632;2023-04-03T11:44:35;12.00;78.40
15413;DHT22;7805;49.554;7.632;2023-04-03T11:47:09;12.30;75.70
15413;DHT22;7805;49.554;7.632;2023-04-03T11:49:55;12.20;75.60
15413;DHT22;7805;49.554;7.632;2023-04-03T11:58:03;11.20;75.60
15413;DHT22;7805;49.554;7.632;2023-04-03T12:29:21;11.00;77.00
15413;DHT22;7805;49.554;7.632;2023-04-03T12:35:19;11.20;77.50
15413;DHT22;7805;49.554;7.632;2023-04-03T12:38:20;11.20;76.20
15413;DHT22;7805;49.554;7.632;2023-04-03T12:46:33;11.20;73.80
15413;DHT22;7805;49.554;7.632;2023-04-03T12:51:58;11.50;74.60
15413;DHT22;7805;49.554;7.632;2023-04-03T12:54:36;11.50;76.10
15413;DHT22;7805;49.554;7.632;2023-04-03T12:57:20;11.40;76.30
15413;DHT22;7805;49.554;7.632;2023-04-03T12:59:46;11.70;75.90
15413;DHT22;7805;49.554;7.632;2023-04-03T13:02:51;11.80;74.70
15413;DHT22;7805;49.554;7.632;2023-04-03T13:05:17;11.70;73.90
15413;DHT22;7805;49.554;7.632;2023-04-03T13:07:43;11.60;75.10
15413;DHT22;7805;49.554;7.632;2023-04-03T13:12:35;11.10;75.90
15413;DHT22;7805;49.554;7.632;2023-04-03T13:17:44;10.80;75.60
15413;DHT22;7805;49.554;7.632;2023-04-03T13:20:29;10.60;76.20
15413;DHT22;7805;49.554;7.632;2023-04-03T13:23:01;10.70;77.10
15413;DHT22;7805;49.554;7.632;2023-04-03T13:25:30;10.70;77.90
15413;DHT22;7805;49.554;7.632;2023-04-03T13:27:58;10.60;78.40
15413;DHT22;7805;49.554;7.632;2023-04-03T13:30:34;10.50;78.60
15413;DHT22;7805;49.554;7.632;2023-04-03T13:33:03;10.40;77.30
15413;DHT22;7805;49.554;7.632;2023-04-03T13:35:39;10.00;78.30
15413;DHT22;7805;49.554;7.632;2023-04-03T13:38:24;10.10;79.90
15413;DHT22;7805;49.554;7.632;2023-04-03T13:40:55;10.30;79.90
15413;DHT22;7805;49.554;7.632;2023-04-03T13:43:29;10.50;79.00
15413;DHT22;7805;49.554;7.632;2023-04-03T13:48:47;10.30;82.00
15413;DHT22;7805;49.554;7.632;2023-04-03T13:54:00;10.30;83.50
15413;DHT22;7805;49.554;7.632;2023-04-03T13:56:39;10.40;84.20
15413;DHT22;7805;49.554;7.632;2023-04-03T14:01:54;10.30;84.80
15413;DHT22;7805;49.554;7.632;2023-04-03T14:04:26;10.30;84.30
15413;DHT22;7805;49.554;7.632;2023-04-03T14:06:54;10.30;83.10
15413;DHT22;7805;49.554;7.632;2023-04-03T14:09:20;10.30;81.30
15413;DHT22;7805;49.554;7.632;2023-04-03T14:11:48;10.30;81.40
15413;DHT22;7805;49.554;7.632;2023-04-03T14:14:21;10.60;81.20
15413;DHT22;7805;49.554;7.632;2023-04-03T14:16:52;10.70;81.80
15413;DHT22;7805;49.554;7.632;2023-04-03T14:19:25;10.80;80.90
15413;DHT22;7805;49.554;7.632;2023-04-03T14:21:51;10.10;80.10
15413;DHT22;7805;49.554;7.632;2023-04-03T14:24:18;10.80;80.40
15413;DHT22;7805;49.554;7.632;2023-04-03T14:26:45;11.00;79.50
15413;DHT22;7805;49.554;7.632;2023-04-03T14:29:12;11.10;80.60
15413;DHT22;7805;49.554;7.632;2023-04-03T14:31:39;10.90;79.70
15413;DHT22;7805;49.554;7.632;2023-04-03T14:34:05;10.70;78.90
15413;DHT22;7805;49.554;7.632;2023-04-03T14:36:31;10.50;79.50
15413;DHT22;7805;49.554;7.632;2023-04-03T14:38:58;10.30;79.60
15413;DHT22;7805;49.554;7.632;2023-04-03T14:41:26;10.40;81.20
15413;DHT22;7805;49.554;7.632;2023-04-03T14:43:52;10.30;80.20
15413;DHT22;7805;49.554;7.632;2023-04-03T14:46:24;10.30;79.80
15413;DHT22;7805;49.554;7.632;2023-04-03T14:48:51;10.40;80.70
15413;DHT22;7805;49.554;7.632;2023-04-03T14:51:17;8.90;78.50
15413;DHT22;7805;49.554;7.632;2023-04-03T14:53:44;10.60;78.80
15413;DHT22;7805;49.554;7.632;2023-04-03T14:56:17;11.00;77.60
15413;DHT22;7805;49.554;7.632;2023-04-03T14:58:43;11.20;75.80
15413;DHT22;7805;49.554;7.632;2023-04-03T15:01:11;11.20;76.60
15413;DHT22;7805;49.554;7.632;2023-04-03T15:03:37;10.90;74.10
15413;DHT22;7805;49.554;7.632;2023-04-03T15:06:03;10.30;72.70
15413;DHT22;7805;49.554;7.632;2023-04-03T15:08:29;10.40;76.10
15413;DHT22;7805;49.554;7.632;2023-04-03T15:10:55;10.60;76.10
15413;DHT22;7805;49.554;7.632;2023-04-03T15:13:22;10.80;74.30
15413;DHT22;7805;49.554;7.632;2023-04-03T15:15:48;11.10;73.80
15413;DHT22;7805;49.554;7.632;2023-04-03T15:18:25;11.40;72.20
15413;DHT22;7805;49.554;7.632;2023-04-03T15:20:52;11.80;70.00
15413;DHT22;7805;49.554;7.632;2023-04-03T15:23:18;12.30;69.50
15413;DHT22;7805;49.554;7.632;2023-04-03T15:25:45;12.50;68.30
15413;DHT22;7805;49.554;7.632;2023-04-03T15:30:51;11.60;68.10
15413;DHT22;7805;49.554;7.632;2023-04-03T15:33:17;11.20;69.40
15413;DHT22;7805;49.554;7.632;2023-04-03T15:35:43;11.00;70.70
15413;DHT22;7805;49.554;7.632;2023-04-03T15:38:09;11.00;71.10
15413;DHT22;7805;49.554;7.632;2023-04-03T15:40:35;10.80;72.00
15413;DHT22;7805;49.554;7.632;2023-04-03T15:43:01;10.90;71.80
15413;DHT22;7805;49.554;7.632;2023-04-03T15:45:29;11.10;71.60
15413;DHT22;7805;49.554;7.632;2023-04-03T15:47:56;11.40;70.70
15413;DHT22;7805;49.554;7.632;2023-04-03T15:50:22;11.70;69.40
15413;DHT22;7805;49.554;7.632;2023-04-03T15:52:50;11.60;66.90
15413;DHT22;7805;49.554;7.632;2023-04-03T15:55:23;11.70;65.40
15413;DHT22;7805;49.554;7.632;2023-04-03T15:57:49;11.40;65.80
15413;DHT22;7805;49.554;7.632;2023-04-03T16:00:15;11.30;66.30
15413;DHT22;7805;49.554;7.632;2023-04-03T16:02:42;11.30;67.60
15413;DHT22;7805;49.554;7.632;2023-04-03T16:05:09;11.60;69.70
15413;DHT22;7805;49.554;7.632;2023-04-03T16:07:37;11.70;68.80
15413;DHT22;7805;49.554;7.632;2023-04-03T16:10:04;12.00;69.40
15413;DHT22;7805;49.554;7.632;2023-04-03T16:12:30;12.10;66.70
15413;DHT22;7805;49.554;7.632;2023-04-03T16:14:56;11.70;65.40
15413;DHT22;7805;49.554;7.632;2023-04-03T16:17:22;11.60;66.60
15413;DHT22;7805;49.554;7.632;2023-04-03T16:19:47;11.50;67.80
15413;DHT22;7805;49.554;7.632;2023-04-03T16:22:13;11.60;67.40
15413;DHT22;7805;49.554;7.632;2023-04-03T16:24:38;11.70;67.90
15413;DHT22;7805;49.554;7.632;2023-04-03T16:27:04;11.40;66.60
15413;DHT22;7805;49.554;7.632;2023-04-03T16:29:30;11.30;66.60
15413;DHT22;7805;49.554;7.632;2023-04-03T16:31:57;11.50;67.70
15413;DHT22;7805;49.554;7.632;2023-04-03T16:34:23;11.30;67.50
15413;DHT22;7805;49.554;7.632;2023-04-03T16:36:51;11.30;68.50
15413;DHT22;7805;49.554;7.632;2023-04-03T16:39:18;11.10;67.40
15413;DHT22;7805;49.554;7.632;2023-04-03T16:41:43;10.60;67.90
15413;DHT22;7805;49.554;7.632;2023-04-03T16:44:10;10.60;69.20
15413;DHT22;7805;49.554;7.632;2023-04-03T16:46:36;10.40;69.60
15413;DHT22;7805;49.554;7.632;2023-04-03T16:49:02;10.20;70.00
15413;DHT22;7805;49.554;7.632;2023-04-03T16:51:27;10.00;70.90
15413;DHT22;7805;49.554;7.632;2023-04-03T16:53:53;10.10;72.10
15413;DHT22;7805;49.554;7.632;2023-04-03T16:56:19;9.80;71.50
15413;DHT22;7805;49.554;7.632;2023-04-03T16:58:44;9.60;71.50
15413;DHT22;7805;49.554;7.632;2023-04-03T17:01:15;9.50;72.70
15413;DHT22;7805;49.554;7.632;2023-04-03T17:03:41;9.30;73.30
15413;DHT22;7805;49.554;7.632;2023-04-03T17:06:06;9.20;73.50
15413;DHT22;7805;49.554;7.632;2023-04-03T17:08:33;9.10;73.90
15413;DHT22;7805;49.554;7.632;2023-04-03T17:10:58;9.00;73.90
15413;DHT22;7805;49.554;7.632;2023-04-03T17:13:24;8.80;74.20
15413;DHT22;7805;49.554;7.632;2023-04-03T17:15:56;8.80;74.90
15413;DHT22;7805;49.554;7.632;2023-04-03T17:18:22;8.70;75.20
15413;DHT22;7805;49.554;7.632;2023-04-03T17:20:48;8.60;75.70
15413;DHT22;7805;49.554;7.632;2023-04-03T17:23:13;8.60;76.60
15413;DHT22;7805;49.554;7.632;2023-04-03T17:25:39;8.60;76.90
15413;DHT22;7805;49.554;7.632;2023-04-03T17:28:04;8.70;77.20
15413;DHT22;7805;49.554;7.632;2023-04-03T17:30:30;8.60;76.90
15413;DHT22;7805;49.554;7.632;2023-04-03T17:32:55;8.50;77.30
15413;DHT22;7805;49.554;7.632;2023-04-03T17:35:21;8.50;77.10
15413;DHT22;7805;49.554;7.632;2023-04-03T17:37:48;8.40;77.70
15413;DHT22;7805;49.554;7.632;2023-04-03T17:40:15;8.30;78.10
15413;DHT22;7805;49.554;7.632;2023-04-03T17:42:42;8.40;79.00
15413;DHT22;7805;49.554;7.632;2023-04-03T17:45:08;8.40;79.90
15413;DHT22;7805;49.554;7.632;2023-04-03T17:47:34;6.10;78.40
15413;DHT22;7805;49.554;7.632;2023-04-03T17:50:00;8.30;80.20
15413;DHT22;7805;49.554;7.632;2023-04-03T17:52:25;8.10;80.50